Terminal Aerodrome Forecast
Issued by NWS

Home | Current Version | Previous Version | Text Only | Print | Product List | Glossary On
Versions: 1 2 3 4 5 6 7 8 9 10 11 12 13 14 15 16 17 18 19
000
FTPA31 PHFO 221700
TAFKOA
TAF
PHKO 221736Z 2218/2318 07004KT P6SM SCT025 BKN070
      TEMPO 2218/2219 BKN025
     FM222000 25008KT P6SM FEW030 SCT060
     FM230300 20006KT P6SM FEW030 BKN060
     FM230900 10005KT P6SM FEW030 SCT060=

USA.gov is the U.S. government's official web portal to all federal, state and local government web resources and services.